createdAt,value
2018-07-09T00:00:08.591Z,18.84
2018-07-09T00:02:01.509Z,18.78
2018-07-09T00:03:01.532Z,18.76
2018-07-09T00:04:54.461Z,18.76
2018-07-09T00:05:54.464Z,18.76
2018-07-09T00:07:47.394Z,18.69
2018-07-09T00:08:47.393Z,18.72
2018-07-09T00:10:40.308Z,18.67
2018-07-09T00:11:40.330Z,18.67
2018-07-09T00:13:33.478Z,18.62
2018-07-09T00:14:33.458Z,18.63
2018-07-09T00:16:27.365Z,18.58
2018-07-09T00:17:27.386Z,18.51
2018-07-09T00:19:20.321Z,18.55
2018-07-09T00:20:20.322Z,18.52
2018-07-09T00:22:13.241Z,18.55
2018-07-09T00:23:13.258Z,18.55
2018-07-09T00:25:06.212Z,18.52
2018-07-09T00:26:06.200Z,18.48
2018-07-09T00:27:59.110Z,18.50
2018-07-09T00:28:59.210Z,18.50
2018-07-09T00:30:52.075Z,18.48
2018-07-09T00:31:52.064Z,18.44
2018-07-09T00:33:44.994Z,18.45
2018-07-09T00:34:44.996Z,18.47
2018-07-09T00:36:37.914Z,18.41
2018-07-09T00:37:37.936Z,18.33
2018-07-09T00:39:30.867Z,18.29
2018-07-09T00:40:30.868Z,18.37
2018-07-09T00:42:23.778Z,18.30
2018-07-09T00:43:23.802Z,18.30
2018-07-09T00:45:16.734Z,18.29
2018-07-09T00:46:16.736Z,18.15
2018-07-09T00:48:09.647Z,18.10
2018-07-09T00:49:09.666Z,17.99
2018-07-09T00:51:02.601Z,18.11
2018-07-09T00:52:02.601Z,17.99
2018-07-09T00:53:55.547Z,18.03
2018-07-09T00:54:55.533Z,18.02
2018-07-09T00:56:48.478Z,17.95
2018-07-09T00:57:48.467Z,17.99
2018-07-09T00:59:41.400Z,18.03
2018-07-09T01:00:41.403Z,17.95
2018-07-09T01:02:34.311Z,17.82
2018-07-09T01:03:34.331Z,17.81
2018-07-09T01:05:27.269Z,17.78
2018-07-09T01:06:27.262Z,17.75
2018-07-09T01:08:20.180Z,17.74
2018-07-09T01:09:20.193Z,17.70
2018-07-09T01:11:13.181Z,17.66
2018-07-09T01:12:13.126Z,17.68
2018-07-09T01:14:06.058Z,17.56
2018-07-09T01:15:06.059Z,17.55
2018-07-09T01:16:59.036Z,17.58
2018-07-09T01:17:58.989Z,17.48
2018-07-09T01:19:51.920Z,17.38
2018-07-09T01:20:51.923Z,17.49
2018-07-09T01:22:44.838Z,17.31
2018-07-09T01:23:44.862Z,17.30
2018-07-09T01:25:37.794Z,17.31
2018-07-09T01:26:37.804Z,17.25
2018-07-09T01:28:30.704Z,17.22
2018-07-09T01:29:30.724Z,17.21
2018-07-09T01:31:23.656Z,17.22
2018-07-09T01:32:23.656Z,17.18
2018-07-09T01:34:16.602Z,17.25
2018-07-09T01:35:16.589Z,17.28
2018-07-09T01:37:09.503Z,17.23
2018-07-09T01:38:09.524Z,17.16
2018-07-09T01:40:02.473Z,17.22
2018-07-09T01:41:02.454Z,17.16
2018-07-09T01:42:55.364Z,17.18
2018-07-09T01:43:55.385Z,17.19
2018-07-09T01:45:48.319Z,17.11
2018-07-09T01:46:48.316Z,17.15
2018-07-09T01:48:41.226Z,17.12
2018-07-09T01:49:41.248Z,17.12
2018-07-09T01:51:34.212Z,17.16
2018-07-09T01:52:34.180Z,17.07
2018-07-09T01:54:27.091Z,16.97
2018-07-09T01:55:27.111Z,17.11
2018-07-09T01:57:20.040Z,16.94
2018-07-09T01:58:20.041Z,16.83
2018-07-09T02:00:13.975Z,16.82
2018-07-09T02:01:13.973Z,16.88
2018-07-09T02:03:07.031Z,16.83
2018-07-09T02:04:07.052Z,16.75
2018-07-09T02:06:00.011Z,16.66
2018-07-09T02:06:59.987Z,16.61
2018-07-09T02:08:53.387Z,16.61
2018-07-09T02:09:53.410Z,16.63
2018-07-09T02:11:46.343Z,16.52
2018-07-09T02:12:46.341Z,16.60
2018-07-09T02:14:40.281Z,16.52
2018-07-09T02:15:40.270Z,16.50
2018-07-09T02:17:33.201Z,16.56
2018-07-09T02:18:33.203Z,16.43
2018-07-09T02:20:26.165Z,16.41
2018-07-09T02:21:26.130Z,16.30
2018-07-09T02:23:19.046Z,16.34
2018-07-09T02:24:19.062Z,16.33
2018-07-09T02:26:12.000Z,16.20
2018-07-09T02:27:11.997Z,16.23
2018-07-09T02:29:04.905Z,16.15
2018-07-09T02:30:04.924Z,16.17
2018-07-09T02:31:57.891Z,16.08
2018-07-09T02:32:57.853Z,16.04
2018-07-09T02:34:50.831Z,16.00
2018-07-09T02:35:50.783Z,16.00
2018-07-09T02:37:43.713Z,15.97
2018-07-09T02:38:43.712Z,15.90
2018-07-09T02:40:36.635Z,15.84
2018-07-09T02:41:36.654Z,15.89
2018-07-09T02:43:29.729Z,15.71
2018-07-09T02:44:29.731Z,15.82
2018-07-09T02:46:22.663Z,15.67
2018-07-09T02:47:22.664Z,15.68
2018-07-09T02:49:15.622Z,15.65
2018-07-09T02:50:15.594Z,15.69
2018-07-09T02:52:08.528Z,15.67
2018-07-09T02:53:08.524Z,15.69
2018-07-09T02:55:01.432Z,15.67
2018-07-09T02:56:01.456Z,15.68
2018-07-09T02:57:54.401Z,15.67
2018-07-09T02:58:54.380Z,15.64
2018-07-09T03:00:47.389Z,15.62
2018-07-09T03:01:47.310Z,15.59
2018-07-09T03:03:40.243Z,15.51
2018-07-09T03:04:40.240Z,15.57
2018-07-09T03:06:33.340Z,15.53
2018-07-09T03:07:33.363Z,15.54
2018-07-09T03:09:26.298Z,15.49
2018-07-09T03:10:26.297Z,15.36
2018-07-09T03:12:19.248Z,15.43
2018-07-09T03:13:19.224Z,15.38
2018-07-09T03:15:12.134Z,15.23
2018-07-09T03:16:12.154Z,15.20
2018-07-09T03:18:05.082Z,15.23
2018-07-09T03:19:05.179Z,15.20
2018-07-09T03:20:59.037Z,15.19
2018-07-09T03:21:59.006Z,15.11
2018-07-09T03:23:51.940Z,15.09
2018-07-09T03:24:51.934Z,15.09
2018-07-09T03:26:44.842Z,15.07
2018-07-09T03:27:44.861Z,15.07
2018-07-09T03:29:37.817Z,15.03
2018-07-09T03:30:37.798Z,14.92
2018-07-09T03:32:30.732Z,14.88
2018-07-09T03:33:30.719Z,14.84
2018-07-09T03:35:23.697Z,14.86
2018-07-09T03:36:23.647Z,14.81
2018-07-09T03:38:16.581Z,14.98
2018-07-09T03:39:16.578Z,14.98
2018-07-09T03:41:09.507Z,14.89
2018-07-09T03:42:09.505Z,14.95
2018-07-09T03:44:02.432Z,14.91
2018-07-09T03:45:02.432Z,14.94
2018-07-09T03:46:56.337Z,14.98
2018-07-09T03:47:56.357Z,14.91
2018-07-09T03:49:49.291Z,14.92
2018-07-09T03:50:49.289Z,14.91
2018-07-09T03:52:42.197Z,15.06
2018-07-09T03:53:42.216Z,15.06
2018-07-09T03:55:35.147Z,15.20
2018-07-09T03:56:35.145Z,15.19
2018-07-09T03:58:28.076Z,15.20
2018-07-09T03:59:28.076Z,15.19
2018-07-09T04:01:20.984Z,15.19
2018-07-09T04:02:21.039Z,15.19
2018-07-09T04:04:13.977Z,15.23
2018-07-09T04:05:13.931Z,15.21
2018-07-09T04:07:06.843Z,15.16
2018-07-09T04:08:06.862Z,15.28
2018-07-09T04:09:59.794Z,15.38
2018-07-09T04:10:59.797Z,15.35
2018-07-09T04:12:52.698Z,15.59
2018-07-09T04:13:52.722Z,15.82
2018-07-09T04:15:45.647Z,16.50
2018-07-09T04:16:45.645Z,16.83
2018-07-09T04:18:38.575Z,17.55
2018-07-09T04:19:38.576Z,17.89
2018-07-09T04:21:31.487Z,18.44
2018-07-09T04:22:31.506Z,18.67
2018-07-09T04:24:24.439Z,19.13
2018-07-09T04:25:24.440Z,19.36
2018-07-09T04:27:17.353Z,19.62
2018-07-09T04:28:17.373Z,19.88
2018-07-09T04:30:11.434Z,20.36
2018-07-09T04:31:11.436Z,20.58
2018-07-09T04:33:04.350Z,21.09
2018-07-09T04:34:04.395Z,21.25
2018-07-09T04:35:57.322Z,21.68
2018-07-09T04:36:57.312Z,21.71
2018-07-09T04:38:50.271Z,22.05
2018-07-09T04:39:50.250Z,22.18
2018-07-09T04:41:44.683Z,22.27
2018-07-09T04:42:44.694Z,22.49
2018-07-09T04:44:37.631Z,22.64
2018-07-09T04:45:37.640Z,22.54
2018-07-09T04:47:30.552Z,22.28
2018-07-09T04:48:30.579Z,22.22
2018-07-09T04:50:23.514Z,22.37
2018-07-09T04:51:23.524Z,22.57
2018-07-09T04:53:16.438Z,22.92
2018-07-09T04:54:16.467Z,23.05
2018-07-09T04:56:09.411Z,23.36
2018-07-09T04:57:09.409Z,23.48
2018-07-09T04:59:02.338Z,23.28
2018-07-09T05:00:02.362Z,23.33
2018-07-09T05:01:55.442Z,23.48
2018-07-09T05:02:55.443Z,23.72
2018-07-09T05:04:48.382Z,24.34
2018-07-09T05:05:48.413Z,24.61
2018-07-09T05:07:41.317Z,25.02
2018-07-09T05:08:41.344Z,25.21
2018-07-09T05:10:34.283Z,25.38
2018-07-09T05:11:34.290Z,25.51
2018-07-09T05:13:27.213Z,25.08
2018-07-09T05:14:27.240Z,25.08
2018-07-09T05:16:20.190Z,25.17
2018-07-09T05:17:20.191Z,25.24
2018-07-09T05:19:13.120Z,25.15
2018-07-09T05:20:13.143Z,25.30
2018-07-09T05:22:07.084Z,25.67
2018-07-09T05:23:07.094Z,25.65
2018-07-09T05:25:00.077Z,25.62
2018-07-09T05:26:00.047Z,25.77
2018-07-09T05:27:52.973Z,26.26
2018-07-09T05:28:53.001Z,26.48
2018-07-09T05:30:45.953Z,26.80
2018-07-09T05:31:45.955Z,26.84
2018-07-09T05:33:38.878Z,26.81
2018-07-09T05:34:38.909Z,26.82
2018-07-09T05:36:31.855Z,26.75
2018-07-09T05:37:31.864Z,26.80
2018-07-09T05:39:24.805Z,26.85
2018-07-09T05:40:24.837Z,26.80
2018-07-09T05:42:18.784Z,26.51
2018-07-09T05:43:18.789Z,26.20
2018-07-09T05:45:11.754Z,26.15
2018-07-09T05:46:11.754Z,26.28
2018-07-09T05:48:04.687Z,26.35
2018-07-09T05:49:04.711Z,26.37
2018-07-09T05:50:57.665Z,26.21
2018-07-09T05:51:57.673Z,25.92
2018-07-09T05:53:50.603Z,25.94
2018-07-09T05:54:50.631Z,25.91
2018-07-09T05:56:43.585Z,26.09
2018-07-09T05:57:43.594Z,26.37
2018-07-09T05:59:36.522Z,26.40
2018-07-09T06:00:36.553Z,26.55
2018-07-09T06:02:29.497Z,26.66
2018-07-09T06:03:29.509Z,26.85
2018-07-09T06:05:22.463Z,26.85
2018-07-09T06:06:22.468Z,26.95
2018-07-09T06:08:15.398Z,27.21
2018-07-09T06:09:15.425Z,27.06
2018-07-09T06:11:08.430Z,26.91
2018-07-09T06:12:08.388Z,27.04
2018-07-09T06:14:01.321Z,27.18
2018-07-09T06:15:01.402Z,27.21
2018-07-09T06:16:54.302Z,27.34
2018-07-09T06:17:54.312Z,27.29
2018-07-09T06:19:47.295Z,27.39
2018-07-09T06:20:47.274Z,27.57
2018-07-09T06:22:40.229Z,27.29
2018-07-09T06:23:40.237Z,26.65
2018-07-09T06:25:33.234Z,26.89
2018-07-09T06:26:33.206Z,26.85
2018-07-09T06:28:26.130Z,26.77
2018-07-09T06:29:26.162Z,26.91
2018-07-09T06:31:19.114Z,26.94
2018-07-09T06:32:19.121Z,26.95
2018-07-09T06:34:12.072Z,26.43
2018-07-09T06:35:12.087Z,26.36
2018-07-09T06:37:05.040Z,25.98
2018-07-09T06:38:05.045Z,25.77
2018-07-09T06:39:57.978Z,25.54
2018-07-09T06:40:58.009Z,25.38
2018-07-09T06:42:50.957Z,24.99
2018-07-09T06:43:50.970Z,24.88
2018-07-09T06:45:43.896Z,24.76
2018-07-09T06:46:43.925Z,24.68
2018-07-09T06:48:36.873Z,24.24
2018-07-09T06:49:36.878Z,24.20
2018-07-09T06:51:29.829Z,24.18
2018-07-09T06:52:29.833Z,24.34
2018-07-09T06:54:22.757Z,24.35
2018-07-09T06:55:22.786Z,24.35
2018-07-09T06:57:15.738Z,24.49
2018-07-09T06:58:15.743Z,24.55
2018-07-09T07:00:08.699Z,24.46
2018-07-09T07:01:08.699Z,24.50
2018-07-09T07:03:01.644Z,24.64
2018-07-09T07:04:01.650Z,24.71
2018-07-09T07:05:54.576Z,25.05
2018-07-09T07:06:54.606Z,25.15
2018-07-09T07:08:47.633Z,25.35
2018-07-09T07:09:47.564Z,25.35
2018-07-09T07:11:40.490Z,25.27
2018-07-09T07:12:40.515Z,25.27
2018-07-09T07:14:33.462Z,25.39
2018-07-09T07:15:33.473Z,25.47
2018-07-09T07:17:26.418Z,25.25
2018-07-09T07:18:26.426Z,25.06
2018-07-09T07:20:19.353Z,24.99
2018-07-09T07:21:19.382Z,24.96
2018-07-09T07:23:12.327Z,24.91
2018-07-09T07:24:12.335Z,24.81
2018-07-09T07:26:05.262Z,24.90
2018-07-09T07:27:05.290Z,25.08
2018-07-09T07:28:58.237Z,25.35
2018-07-09T07:29:58.245Z,25.36
2018-07-09T07:31:51.176Z,25.45
2018-07-09T07:32:51.280Z,25.42
2018-07-09T07:34:44.158Z,25.40
2018-07-09T07:35:44.163Z,25.46
2018-07-09T07:37:37.177Z,25.65
2018-07-09T07:38:37.120Z,25.90
2018-07-09T07:40:30.048Z,25.83
2018-07-09T07:41:30.076Z,25.88
2018-07-09T07:43:23.029Z,25.73
2018-07-09T07:44:23.035Z,25.61
2018-07-09T07:46:15.959Z,25.61
2018-07-09T07:47:15.988Z,25.58
2018-07-09T07:49:08.941Z,25.57
2018-07-09T07:50:08.966Z,25.61
2018-07-09T07:52:01.927Z,25.51
2018-07-09T07:53:01.898Z,25.47
2018-07-09T07:54:54.845Z,25.85
2018-07-09T07:55:54.896Z,25.98
2018-07-09T07:57:47.807Z,26.10
2018-07-09T07:58:47.811Z,26.32
2018-07-09T08:00:40.758Z,26.62
2018-07-09T08:01:40.768Z,26.63
2018-07-09T08:03:33.720Z,26.72
2018-07-09T08:04:33.722Z,26.57
2018-07-09T08:06:26.651Z,26.54
2018-07-09T08:07:26.681Z,26.65
2018-07-09T08:09:19.672Z,26.63
2018-07-09T08:10:19.640Z,26.77
2018-07-09T08:13:00.556Z,26.73
2018-07-09T08:13:27.984Z,26.82
2018-07-09T08:15:05.577Z,26.69
2018-07-09T08:16:05.563Z,26.47
2018-07-09T08:17:58.518Z,25.80
2018-07-09T08:18:58.525Z,25.64
2018-07-09T08:20:51.457Z,25.00
2018-07-09T08:21:51.483Z,25.10
2018-07-09T08:23:44.445Z,24.81
2018-07-09T08:24:44.520Z,24.78
2018-07-09T08:26:38.371Z,24.78
2018-07-09T08:27:38.402Z,24.98
2018-07-09T08:29:31.354Z,24.60
2018-07-09T08:30:31.359Z,24.55
2018-07-09T08:32:24.287Z,24.65
2018-07-09T08:33:24.318Z,24.60
2018-07-09T08:35:17.269Z,24.60
2018-07-09T08:36:17.273Z,24.58
2018-07-09T08:38:10.204Z,24.76
2018-07-09T08:39:10.228Z,24.65
2018-07-09T08:41:03.180Z,24.55
2018-07-09T08:42:03.190Z,24.58
2018-07-09T08:43:56.137Z,24.22
2018-07-09T08:44:56.139Z,24.39
2018-07-09T08:46:49.065Z,24.49
2018-07-09T08:47:49.094Z,24.68
2018-07-09T08:49:42.040Z,25.15
2018-07-09T08:50:42.047Z,25.14
2018-07-09T08:52:34.970Z,25.06
2018-07-09T08:53:35.003Z,25.17
2018-07-09T08:55:27.951Z,25.30
2018-07-09T08:56:27.955Z,25.38
2018-07-09T08:58:20.882Z,25.27
2018-07-09T08:59:20.909Z,25.25
2018-07-09T09:01:13.861Z,25.27
2018-07-09T09:02:13.864Z,25.45
2018-07-09T09:04:06.811Z,25.67
2018-07-09T09:05:06.820Z,25.85
2018-07-09T09:06:59.743Z,26.07
2018-07-09T09:07:59.774Z,26.07
2018-07-09T09:09:52.718Z,26.25
2018-07-09T09:10:52.727Z,26.43
2018-07-09T09:12:45.653Z,26.58
2018-07-09T09:13:45.680Z,26.63
2018-07-09T09:15:38.626Z,26.40
2018-07-09T09:16:38.693Z,26.36
2018-07-09T09:18:31.559Z,26.39
2018-07-09T09:19:31.594Z,26.29
2018-07-09T09:21:24.539Z,25.94
2018-07-09T09:22:24.543Z,25.82
2018-07-09T09:24:17.504Z,25.80
2018-07-09T09:25:17.502Z,25.83
2018-07-09T09:27:10.429Z,25.76
2018-07-09T09:28:10.456Z,25.79
2018-07-09T09:30:03.407Z,25.55
2018-07-09T09:31:03.417Z,25.52
2018-07-09T09:32:56.338Z,25.38
2018-07-09T09:33:56.366Z,25.17
2018-07-09T09:35:49.320Z,25.09
2018-07-09T09:36:49.322Z,24.99
2018-07-09T09:38:42.248Z,24.95
2018-07-09T09:39:42.276Z,24.90
2018-07-09T09:41:35.225Z,24.68
2018-07-09T09:42:35.228Z,24.77
2018-07-09T09:44:28.153Z,24.49
2018-07-09T09:45:28.182Z,24.42
2018-07-09T09:47:21.131Z,24.52
2018-07-09T09:48:21.142Z,24.64
2018-07-09T09:50:14.090Z,24.76
2018-07-09T09:51:14.096Z,24.91
2018-07-09T09:53:08.025Z,24.96
2018-07-09T09:54:08.054Z,25.03
2018-07-09T09:56:01.147Z,25.14
2018-07-09T09:57:01.152Z,25.13
2018-07-09T09:58:55.117Z,25.24
2018-07-09T09:59:55.104Z,25.18
2018-07-09T10:01:48.057Z,25.10
2018-07-09T10:02:48.065Z,24.96
2018-07-09T10:04:41.020Z,24.80
2018-07-09T10:05:41.020Z,24.88
2018-07-09T10:07:33.966Z,24.68
2018-07-09T10:08:41.152Z,24.58
2018-07-09T10:10:34.076Z,24.62
2018-07-09T10:11:26.926Z,24.76
2018-07-09T10:13:19.858Z,24.71
2018-07-09T10:14:19.884Z,24.88
2018-07-09T10:16:12.835Z,24.91
2018-07-09T10:17:12.845Z,25.03
2018-07-09T10:19:05.771Z,25.27
2018-07-09T10:20:05.796Z,25.32
2018-07-09T10:21:58.746Z,25.18
2018-07-09T10:22:58.915Z,25.33
2018-07-09T10:24:51.676Z,25.39
2018-07-09T10:25:51.709Z,25.36
2018-07-09T10:27:44.662Z,25.35
2018-07-09T10:28:44.660Z,25.32
2018-07-09T10:30:37.640Z,25.35
2018-07-09T10:31:37.650Z,25.23
2018-07-09T10:33:30.582Z,25.20
2018-07-09T10:34:30.614Z,25.15
2018-07-09T10:36:23.561Z,24.95
2018-07-09T10:37:23.570Z,25.02
2018-07-09T10:39:16.993Z,25.21
2018-07-09T10:40:17.025Z,25.10
2018-07-09T10:42:09.974Z,25.23
2018-07-09T10:43:09.978Z,25.30
2018-07-09T10:45:02.906Z,25.32
2018-07-09T10:46:02.941Z,25.35
2018-07-09T10:47:55.886Z,25.08
2018-07-09T10:48:55.891Z,24.91
2018-07-09T10:50:48.853Z,24.76
2018-07-09T10:51:48.853Z,24.61
2018-07-09T10:53:42.773Z,24.50
2018-07-09T10:54:42.803Z,24.52
2018-07-09T10:56:35.755Z,24.57
2018-07-09T10:57:35.766Z,24.76
2018-07-09T10:59:29.185Z,24.85
2018-07-09T11:00:29.210Z,24.83
2018-07-09T11:02:22.160Z,24.85
2018-07-09T11:03:22.167Z,24.93
2018-07-09T11:05:15.096Z,25.13
2018-07-09T11:06:15.125Z,25.06
2018-07-09T11:08:08.075Z,24.96
2018-07-09T11:09:08.080Z,25.10
2018-07-09T11:11:01.024Z,25.10
2018-07-09T11:12:01.040Z,25.03
2018-07-09T11:13:54.223Z,24.91
2018-07-09T11:14:54.168Z,24.93
2018-07-09T11:16:47.116Z,24.77
2018-07-09T11:17:47.135Z,24.80
2018-07-09T11:19:40.053Z,24.98
2018-07-09T11:20:40.082Z,24.90
2018-07-09T11:22:33.036Z,25.03
2018-07-09T11:23:33.037Z,25.03
2018-07-09T11:25:25.971Z,24.80
2018-07-09T11:26:33.167Z,24.88
2018-07-09T11:28:19.034Z,25.09
2018-07-09T11:29:19.058Z,25.10
2018-07-09T11:31:12.099Z,25.08
2018-07-09T11:32:12.132Z,24.90
2018-07-09T11:34:05.031Z,24.84
2018-07-09T11:35:05.072Z,24.77
2018-07-09T11:36:58.302Z,24.77
2018-07-09T11:37:59.932Z,24.68
2018-07-09T11:39:51.663Z,24.55
2018-07-09T11:40:51.677Z,24.57
2018-07-09T11:42:44.744Z,24.42
2018-07-09T11:43:44.751Z,24.40
2018-07-09T11:45:37.769Z,24.47
2018-07-09T11:46:37.795Z,24.64
2018-07-09T11:48:30.836Z,24.87
2018-07-09T11:49:30.857Z,24.96
2018-07-09T11:51:23.797Z,24.87
2018-07-09T11:52:23.817Z,24.90
2018-07-09T11:54:16.756Z,25.03
2018-07-09T11:55:16.759Z,25.03
2018-07-09T11:57:09.772Z,24.87
2018-07-09T11:58:09.711Z,24.78
2018-07-09T12:00:02.643Z,24.47
2018-07-09T12:01:02.669Z,24.52
2018-07-09T12:02:55.609Z,24.39
2018-07-09T12:03:55.621Z,24.24
2018-07-09T12:05:48.561Z,24.24
2018-07-09T12:06:48.593Z,24.28
2018-07-09T12:08:41.524Z,24.39
2018-07-09T12:09:41.530Z,24.53
2018-07-09T12:11:34.461Z,24.80
2018-07-09T12:12:34.483Z,24.71
2018-07-09T12:14:27.428Z,24.85
2018-07-09T12:15:27.437Z,25.06
2018-07-09T12:17:20.388Z,24.93
2018-07-09T12:18:20.391Z,24.85
2018-07-09T12:20:13.353Z,25.02
2018-07-09T12:21:13.349Z,25.23
2018-07-09T12:23:06.300Z,25.33
2018-07-09T12:24:06.308Z,25.52
2018-07-09T12:26:00.234Z,25.57
2018-07-09T12:27:00.270Z,25.55
2018-07-09T12:28:53.227Z,25.50
2018-07-09T12:29:53.218Z,25.39
2018-07-09T12:31:46.147Z,25.60
2018-07-09T12:32:46.176Z,25.60
2018-07-09T12:34:39.615Z,25.72
2018-07-09T12:35:39.625Z,25.83
2018-07-09T12:37:32.584Z,25.76
2018-07-09T12:38:32.587Z,25.62
2018-07-09T12:40:25.558Z,25.46
2018-07-09T12:41:25.547Z,25.61
2018-07-09T12:43:18.508Z,25.75
2018-07-09T12:44:18.508Z,25.82
2018-07-09T12:46:11.500Z,26.05
2018-07-09T12:47:11.474Z,26.09
2018-07-09T12:49:13.122Z,26.28
2018-07-09T12:50:04.438Z,26.35
2018-07-09T12:51:57.368Z,26.50
2018-07-09T12:52:57.396Z,26.55
2018-07-09T12:54:50.848Z,26.73
2018-07-09T12:55:50.883Z,26.92
2018-07-09T12:57:43.792Z,26.75
2018-07-09T12:58:43.823Z,26.88
2018-07-09T13:00:36.784Z,27.09
2018-07-09T13:01:36.841Z,26.95
2018-07-09T13:03:29.759Z,26.92
2018-07-09T13:04:29.750Z,26.81
2018-07-09T13:06:22.683Z,26.65
2018-07-09T13:07:22.808Z,26.62
2018-07-09T13:09:15.667Z,26.66
2018-07-09T13:10:15.676Z,26.63
2018-07-09T13:12:08.606Z,26.63
2018-07-09T13:13:08.638Z,26.50
2018-07-09T13:15:03.271Z,26.44
2018-07-09T13:16:04.508Z,26.43
2018-07-09T13:17:57.625Z,26.65
2018-07-09T13:18:57.672Z,26.85
2018-07-09T13:20:50.614Z,26.81
2018-07-09T13:21:50.669Z,26.77
2018-07-09T13:23:43.581Z,26.91
2018-07-09T13:24:43.587Z,26.92
2018-07-09T13:26:36.514Z,27.18
2018-07-09T13:27:36.546Z,27.34
2018-07-09T13:29:29.496Z,27.67
2018-07-09T13:30:29.508Z,27.62
2018-07-09T13:32:22.444Z,27.66
2018-07-09T13:33:22.476Z,27.46
2018-07-09T13:35:15.426Z,27.40
2018-07-09T13:36:15.437Z,27.36
2018-07-09T13:38:08.862Z,27.34
2018-07-09T13:39:08.891Z,27.25
2018-07-09T13:41:01.843Z,27.40
2018-07-09T13:42:01.849Z,27.32
2018-07-09T13:43:55.829Z,27.34
2018-07-09T13:44:55.828Z,27.41
2018-07-09T13:46:49.753Z,27.41
2018-07-09T13:47:49.779Z,27.57
2018-07-09T13:49:42.777Z,27.40
2018-07-09T13:50:42.767Z,27.39
2018-07-09T13:52:35.701Z,27.02
2018-07-09T13:53:35.748Z,27.07
2018-07-09T13:55:28.684Z,26.99
2018-07-09T13:56:28.704Z,27.07
2018-07-09T13:58:21.819Z,27.29
2018-07-09T13:59:21.792Z,27.27
2018-07-09T14:01:15.293Z,27.22
2018-07-09T14:02:15.300Z,26.95
2018-07-09T14:04:09.274Z,26.82
2018-07-09T14:05:09.257Z,26.62
2018-07-09T14:07:02.681Z,26.60
2018-07-09T14:08:02.709Z,26.50
2018-07-09T14:09:55.660Z,26.12
2018-07-09T14:10:55.667Z,26.25
2018-07-09T14:12:48.594Z,26.13
2018-07-09T14:13:48.624Z,26.10
2018-07-09T14:15:41.600Z,26.02
2018-07-09T14:16:41.585Z,25.97
2018-07-09T14:18:34.512Z,25.87
2018-07-09T14:19:34.542Z,25.72
2018-07-09T14:21:27.492Z,25.39
2018-07-09T14:22:27.498Z,25.28
2018-07-09T14:24:21.917Z,25.28
2018-07-09T14:25:21.949Z,25.28
2018-07-09T14:27:14.897Z,25.39
2018-07-09T14:28:14.905Z,25.45
2018-07-09T14:30:07.849Z,25.46
2018-07-09T14:31:07.862Z,25.52
2018-07-09T14:33:00.785Z,25.60
2018-07-09T14:34:00.812Z,25.58
2018-07-09T14:35:53.752Z,25.62
2018-07-09T14:36:53.770Z,25.70
2018-07-09T14:38:46.688Z,25.72
2018-07-09T14:39:46.718Z,25.72
2018-07-09T14:41:39.674Z,25.83
2018-07-09T14:42:39.673Z,25.88
2018-07-09T14:44:32.600Z,25.95
2018-07-09T14:45:32.628Z,26.06
2018-07-09T14:47:25.578Z,26.12
2018-07-09T14:48:25.591Z,26.07
2018-07-09T14:50:18.544Z,26.25
2018-07-09T14:51:18.542Z,26.25
2018-07-09T14:53:11.473Z,26.30
2018-07-09T14:54:11.505Z,26.28
2018-07-09T14:56:04.469Z,25.92
2018-07-09T14:57:04.480Z,25.92
2018-07-09T14:58:57.911Z,25.98
2018-07-09T14:59:57.926Z,25.92
2018-07-09T15:01:50.908Z,26.20
2018-07-09T15:02:50.891Z,26.21
2018-07-09T15:04:43.822Z,26.28
2018-07-09T15:05:43.851Z,26.26
2018-07-09T15:07:36.802Z,26.37
2018-07-09T15:08:36.810Z,26.36
2018-07-09T15:10:29.832Z,26.48
2018-07-09T15:11:29.770Z,26.51
2018-07-09T15:13:22.700Z,26.23
2018-07-09T15:14:22.732Z,26.10
2018-07-09T15:16:15.682Z,26.13
2018-07-09T15:17:15.692Z,26.09
2018-07-09T15:19:08.651Z,25.95
2018-07-09T15:20:08.685Z,26.06
2018-07-09T15:22:01.728Z,26.13
2018-07-09T15:23:01.740Z,26.05
2018-07-09T15:25:04.773Z,25.95
2018-07-09T15:26:04.696Z,25.88
2018-07-09T15:27:57.641Z,25.82
2018-07-09T15:28:57.646Z,25.82
2018-07-09T15:30:50.664Z,25.76
2018-07-09T15:31:50.599Z,25.92
2018-07-09T15:33:43.591Z,25.95
2018-07-09T15:34:43.588Z,26.09
2018-07-09T15:36:36.530Z,26.09
2018-07-09T15:37:36.536Z,26.10
2018-07-09T15:39:29.459Z,25.98
2018-07-09T15:40:29.576Z,26.06
2018-07-09T15:42:22.435Z,25.92
2018-07-09T15:43:22.442Z,25.92
2018-07-09T15:45:15.374Z,25.91
2018-07-09T15:46:15.390Z,25.94
2018-07-09T15:48:08.354Z,25.90
2018-07-09T15:49:08.377Z,25.82
2018-07-09T15:51:01.268Z,25.76
2018-07-09T15:52:01.293Z,25.80
2018-07-09T15:53:54.236Z,25.87
2018-07-09T15:54:54.243Z,25.87
2018-07-09T15:56:47.361Z,25.95
2018-07-09T15:57:47.342Z,25.87
2018-07-09T15:59:40.329Z,25.77
2018-07-09T16:00:40.332Z,25.73
2018-07-09T16:02:33.271Z,25.79
2018-07-09T16:03:33.302Z,25.83
2018-07-09T16:05:27.409Z,25.67
2018-07-09T16:06:27.430Z,25.36
2018-07-09T16:08:20.483Z,25.55
2018-07-09T16:09:20.424Z,25.52
2018-07-09T16:11:13.345Z,25.52
2018-07-09T16:12:13.378Z,25.47
2018-07-09T16:14:06.425Z,25.30
2018-07-09T16:15:06.334Z,25.35
2018-07-09T16:17:00.372Z,25.14
2018-07-09T16:18:00.312Z,24.96
2018-07-09T16:19:53.224Z,24.95
2018-07-09T16:20:53.260Z,24.91
2018-07-09T16:22:47.213Z,24.64
2018-07-09T16:23:47.198Z,24.57
2018-07-09T16:25:40.168Z,24.58
2018-07-09T16:26:40.185Z,24.61
2018-07-09T16:28:33.188Z,24.52
2018-07-09T16:29:33.149Z,24.43
2018-07-09T16:31:26.103Z,24.45
2018-07-09T16:32:26.101Z,24.34
2018-07-09T16:34:19.038Z,24.27
2018-07-09T16:35:19.048Z,24.12
2018-07-09T16:37:12.144Z,24.21
2018-07-09T16:38:12.179Z,24.25
2018-07-09T16:40:05.357Z,24.31
2018-07-09T16:41:05.335Z,24.35
2018-07-09T16:42:58.290Z,24.42
2018-07-09T16:43:58.295Z,24.45
2018-07-09T16:45:51.212Z,24.42
2018-07-09T16:46:51.386Z,24.45
2018-07-09T16:48:44.216Z,24.53
2018-07-09T16:49:44.200Z,24.52
2018-07-09T16:51:37.132Z,24.61
2018-07-09T16:52:37.243Z,24.52
2018-07-09T16:54:30.144Z,24.50
2018-07-09T16:55:30.131Z,24.49
2018-07-09T16:57:23.034Z,24.37
2018-07-09T16:58:23.061Z,24.34
2018-07-09T17:00:16.004Z,24.15
2018-07-09T17:01:16.012Z,24.25
2018-07-09T17:03:08.971Z,24.27
2018-07-09T17:04:08.969Z,24.27
2018-07-09T17:06:01.891Z,24.24
2018-07-09T17:07:01.918Z,24.16
2018-07-09T17:08:54.864Z,24.00
2018-07-09T17:09:54.867Z,24.06
2018-07-09T17:11:47.791Z,24.03
2018-07-09T17:12:47.816Z,24.06
2018-07-09T17:14:40.752Z,24.06
2018-07-09T17:15:40.763Z,24.00
2018-07-09T17:17:33.680Z,24.00
2018-07-09T17:18:33.708Z,24.02
2018-07-09T17:20:26.654Z,23.78
2018-07-09T17:21:26.655Z,23.76
2018-07-09T17:23:19.743Z,23.68
2018-07-09T17:24:19.750Z,23.61
2018-07-09T17:26:12.675Z,23.63
2018-07-09T17:27:12.797Z,23.57
2018-07-09T17:29:05.634Z,23.47
2018-07-09T17:30:05.643Z,23.43
2018-07-09T17:31:58.579Z,23.35
2018-07-09T17:32:58.589Z,23.17
2018-07-09T17:34:51.563Z,23.15
2018-07-09T17:35:51.534Z,23.12
2018-07-09T17:37:44.472Z,23.10
2018-07-09T17:38:44.487Z,23.16
2018-07-09T17:40:37.443Z,23.07
2018-07-09T17:41:37.422Z,23.07
2018-07-09T17:43:30.358Z,23.04
2018-07-09T17:44:30.366Z,23.04
2018-07-09T17:46:23.283Z,22.98
2018-07-09T17:47:23.313Z,22.92
2018-07-09T17:49:16.250Z,22.91
2018-07-09T17:50:16.258Z,22.90
2018-07-09T17:52:09.175Z,22.83
2018-07-09T17:53:09.206Z,22.79
2018-07-09T17:55:02.140Z,22.64
2018-07-09T17:56:02.147Z,22.65
2018-07-09T17:57:55.080Z,22.43
2018-07-09T17:58:55.094Z,22.46
2018-07-09T18:00:48.035Z,22.27
2018-07-09T18:01:48.038Z,22.40
2018-07-09T18:03:40.974Z,22.47
2018-07-09T18:04:41.024Z,22.47
2018-07-09T18:06:33.895Z,22.22
2018-07-09T18:07:33.925Z,22.17
2018-07-09T18:09:27.358Z,22.07
2018-07-09T18:10:27.386Z,22.03
2018-07-09T18:12:20.563Z,21.99
2018-07-09T18:13:20.598Z,21.82
2018-07-09T18:15:14.016Z,21.68
2018-07-09T18:16:14.019Z,21.68
2018-07-09T18:18:06.962Z,21.62
2018-07-09T18:19:06.974Z,21.58
2018-07-09T18:21:00.052Z,21.52
2018-07-09T18:21:59.904Z,21.61
2018-07-09T18:23:52.836Z,21.46
2018-07-09T18:24:52.841Z,21.34
2018-07-09T18:26:45.762Z,21.29
2018-07-09T18:27:45.789Z,21.27
2018-07-09T18:29:38.728Z,21.21
2018-07-09T18:30:38.738Z,21.12
2018-07-09T18:32:31.697Z,20.98
2018-07-09T18:33:31.681Z,20.74